createdAt,value
2018-11-06T00:00:42.618Z,50.37
2018-11-06T00:03:15.531Z,48.97
2018-11-06T00:05:49.654Z,50.93
2018-11-06T00:08:18.560Z,51.50
2018-11-06T00:10:46.773Z,48.13
2018-11-06T00:13:17.794Z,49.60
2018-11-06T00:15:46.527Z,47.87
2018-11-06T00:18:15.407Z,51.77
2018-11-06T00:20:44.095Z,46.70
2018-11-06T00:23:11.926Z,49.27
2018-11-06T00:25:41.735Z,49.90
2018-11-06T00:28:10.567Z,51.20
2018-11-06T00:30:40.575Z,47.20
2018-11-06T00:33:09.235Z,47.33
2018-11-06T00:35:37.476Z,49.53
2018-11-06T00:38:05.477Z,44.30
2018-11-06T00:40:34.688Z,42.47
2018-11-06T00:43:02.446Z,46.97
2018-11-06T00:45:29.990Z,47.23
2018-11-06T00:48:02.707Z,46.70
2018-11-06T00:50:36.790Z,45.87
2018-11-06T00:53:04.454Z,47.17
2018-11-06T00:55:32.097Z,49.17
2018-11-06T00:57:59.761Z,47.37
2018-11-06T01:00:27.475Z,48.90
2018-11-06T01:02:55.080Z,49.53
2018-11-06T01:05:22.713Z,48.70
2018-11-06T01:07:50.379Z,44.87
2018-11-06T01:10:18.372Z,49.60
2018-11-06T01:12:46.057Z,46.50
2018-11-06T01:15:14.933Z,43.43
2018-11-06T01:17:43.566Z,47.07
2018-11-06T01:20:12.883Z,47.10
2018-11-06T01:22:40.525Z,44.07
2018-11-06T01:25:08.654Z,44.93
2018-11-06T01:27:36.303Z,46.30
2018-11-06T01:30:04.255Z,46.50
2018-11-06T01:32:31.917Z,43.67
2018-11-06T01:34:59.586Z,44.20
2018-11-06T01:37:27.186Z,42.43
2018-11-06T01:39:54.839Z,48.40
2018-11-06T01:42:22.465Z,43.60
2018-11-06T01:44:50.066Z,46.13
2018-11-06T01:47:17.758Z,46.23
2018-11-06T01:49:45.342Z,45.63
2018-11-06T01:52:12.906Z,45.97
2018-11-06T01:54:40.513Z,47.03
2018-11-06T01:57:08.106Z,45.73
2018-11-06T01:59:35.693Z,45.97
2018-11-06T02:02:03.340Z,43.13
2018-11-06T02:04:30.987Z,41.90
2018-11-06T02:06:58.615Z,44.27
2018-11-06T02:09:26.376Z,44.57
2018-11-06T02:11:54.056Z,44.70
2018-11-06T02:14:21.654Z,47.50
2018-11-06T02:16:49.424Z,43.70
2018-11-06T02:19:17.104Z,44.80
2018-11-06T02:21:44.770Z,43.27
2018-11-06T02:24:12.431Z,44.37
2018-11-06T02:26:40.104Z,43.17
2018-11-06T02:29:07.773Z,46.53
2018-11-06T02:31:35.410Z,46.90
2018-11-06T02:34:03.011Z,43.23
2018-11-06T02:36:30.655Z,46.40
2018-11-06T02:38:58.311Z,44.20
2018-11-06T02:41:25.953Z,43.07
2018-11-06T02:43:53.506Z,41.17
2018-11-06T02:46:21.164Z,43.90
2018-11-06T02:48:48.750Z,46.40
2018-11-06T02:51:16.387Z,43.33
2018-11-06T02:53:44.014Z,46.27
2018-11-06T02:56:11.611Z,43.43
2018-11-06T02:58:39.265Z,44.60
2018-11-06T03:01:06.921Z,47.30
2018-11-06T03:03:39.526Z,41.83
2018-11-06T03:06:07.175Z,40.97
2018-11-06T03:08:34.905Z,41.97
2018-11-06T03:11:02.501Z,41.67
2018-11-06T03:13:30.168Z,42.90
2018-11-06T03:15:57.823Z,42.63
2018-11-06T03:18:25.507Z,44.30
2018-11-06T03:20:53.141Z,43.10
2018-11-06T03:23:20.906Z,46.93
2018-11-06T03:25:48.504Z,45.50
2018-11-06T03:28:16.139Z,44.30
2018-11-06T03:30:43.763Z,46.00
2018-11-06T03:33:11.386Z,43.87
2018-11-06T03:35:38.979Z,44.63
2018-11-06T03:38:06.588Z,43.97
2018-11-06T03:40:34.167Z,42.37
2018-11-06T03:43:01.769Z,44.00
2018-11-06T03:45:29.361Z,44.40
2018-11-06T03:47:56.947Z,40.70
2018-11-06T03:50:24.712Z,43.97
2018-11-06T03:52:52.345Z,41.70
2018-11-06T03:55:20.000Z,42.47
2018-11-06T03:57:47.669Z,46.70
2018-11-06T04:00:15.691Z,42.10
2018-11-06T04:02:43.956Z,42.60
2018-11-06T04:05:12.039Z,45.60
2018-11-06T04:07:39.751Z,44.03
2018-11-06T04:10:07.964Z,41.70
2018-11-06T04:12:35.583Z,43.70
2018-11-06T04:15:03.407Z,44.97
2018-11-06T04:17:31.034Z,44.50
2018-11-06T04:19:58.667Z,44.53
2018-11-06T04:22:26.313Z,44.30
2018-11-06T04:24:53.951Z,44.77
2018-11-06T04:27:21.556Z,40.33
2018-11-06T04:29:49.289Z,36.87
2018-11-06T04:32:16.930Z,39.37
2018-11-06T04:34:44.571Z,41.10
2018-11-06T04:37:12.198Z,36.70
2018-11-06T04:39:39.838Z,40.30
2018-11-06T04:42:07.526Z,38.10
2018-11-06T04:44:35.150Z,38.37
2018-11-06T04:47:02.790Z,36.10
2018-11-06T04:49:30.393Z,40.70
2018-11-06T04:51:58.011Z,38.20
2018-11-06T04:54:25.635Z,38.00
2018-11-06T04:56:53.248Z,39.80
2018-11-06T04:59:20.928Z,39.37
2018-11-06T05:01:48.600Z,35.73
2018-11-06T05:04:16.235Z,40.27
2018-11-06T05:06:43.899Z,37.90
2018-11-06T05:09:11.623Z,36.53
2018-11-06T05:11:39.279Z,36.50
2018-11-06T05:14:06.944Z,32.70
2018-11-06T05:16:34.645Z,38.07
2018-11-06T05:19:02.377Z,35.50
2018-11-06T05:21:30.099Z,35.70
2018-11-06T05:23:58.401Z,37.30
2018-11-06T05:26:26.175Z,27.17
2018-11-06T05:28:54.022Z,33.70
2018-11-06T05:31:21.678Z,34.03
2018-11-06T05:33:49.626Z,34.27
2018-11-06T05:36:17.251Z,31.57
2018-11-06T05:38:44.905Z,33.63
2018-11-06T05:41:12.592Z,34.40
2018-11-06T05:43:40.283Z,32.67
2018-11-06T05:46:07.992Z,33.07
2018-11-06T05:48:35.698Z,33.60
2018-11-06T05:51:03.405Z,34.40
2018-11-06T05:53:31.170Z,33.37
2018-11-06T05:55:58.850Z,31.40
2018-11-06T05:58:26.547Z,32.57
2018-11-06T06:00:54.255Z,31.13
2018-11-06T06:03:22.083Z,34.33
2018-11-06T06:05:49.773Z,33.33
2018-11-06T06:08:17.507Z,29.90
2018-11-06T06:10:45.399Z,32.30
2018-11-06T06:13:13.170Z,31.77
2018-11-06T06:15:40.956Z,32.10
2018-11-06T06:18:08.630Z,33.37
2018-11-06T06:20:36.407Z,32.13
2018-11-06T06:23:04.124Z,32.00
2018-11-06T06:25:31.804Z,32.83
2018-11-06T06:27:59.454Z,30.83
2018-11-06T06:30:27.133Z,31.80
2018-11-06T06:32:54.821Z,30.97
2018-11-06T06:35:22.632Z,32.30
2018-11-06T06:37:50.363Z,28.47
2018-11-06T06:40:18.437Z,28.00
2018-11-06T06:42:46.772Z,27.40
2018-11-06T06:45:15.819Z,30.37
2018-11-06T06:47:43.510Z,27.90
2018-11-06T06:50:13.629Z,28.20
2018-11-06T06:52:41.761Z,27.60
2018-11-06T06:55:10.593Z,26.13
2018-11-06T06:57:39.540Z,26.63
2018-11-06T07:00:08.749Z,25.73
2018-11-06T07:02:36.786Z,29.40
2018-11-06T07:05:05.933Z,27.57
2018-11-06T07:07:33.943Z,27.10
2018-11-06T07:10:01.859Z,24.00
2018-11-06T07:12:29.905Z,25.90
2018-11-06T07:14:57.864Z,25.00
2018-11-06T07:17:25.473Z,26.37
2018-11-06T07:19:53.292Z,23.40
2018-11-06T07:22:21.167Z,26.37
2018-11-06T07:24:49.076Z,22.60
2018-11-06T07:27:16.797Z,26.40
2018-11-06T07:29:44.500Z,25.40
2018-11-06T07:32:13.162Z,26.20
2018-11-06T07:34:41.225Z,26.00
2018-11-06T07:37:09.201Z,24.10
2018-11-06T07:39:38.938Z,24.87
2018-11-06T07:42:07.808Z,27.33
2018-11-06T07:44:45.925Z,24.97
2018-11-06T07:47:13.563Z,23.83
2018-11-06T07:49:41.194Z,24.23
2018-11-06T07:52:08.939Z,23.40
2018-11-06T07:54:36.726Z,22.43
2018-11-06T07:57:05.350Z,21.37
2018-11-06T07:59:34.150Z,22.67
2018-11-06T08:02:02.050Z,22.63
2018-11-06T08:04:30.017Z,24.57
2018-11-06T08:06:57.850Z,22.50
2018-11-06T08:09:26.247Z,21.17
2018-11-06T08:11:53.898Z,24.17
2018-11-06T08:14:21.566Z,23.93
2018-11-06T08:16:49.795Z,19.07
2018-11-06T08:19:17.889Z,23.97
2018-11-06T08:21:46.035Z,20.63
2018-11-06T08:24:14.148Z,22.80
2018-11-06T08:26:42.254Z,20.53
2018-11-06T08:29:10.486Z,21.10
2018-11-06T08:31:39.503Z,22.70
2018-11-06T08:34:06.887Z,21.33
2018-11-06T08:36:35.508Z,19.90
2018-11-06T08:39:05.889Z,21.00
2018-11-06T08:41:34.196Z,21.10
2018-11-06T08:44:01.962Z,23.60
2018-11-06T08:46:29.906Z,22.33
2018-11-06T08:48:57.691Z,23.97
2018-11-06T08:51:25.492Z,23.50
2018-11-06T08:53:53.169Z,22.30
2018-11-06T08:56:20.831Z,23.73
2018-11-06T08:58:48.506Z,22.10
2018-11-06T09:01:16.515Z,22.20
2018-11-06T09:03:45.654Z,22.40
2018-11-06T09:06:13.472Z,22.30
2018-11-06T09:08:41.293Z,21.83
2018-11-06T09:11:09.254Z,22.83
2018-11-06T09:13:38.314Z,23.50
2018-11-06T09:16:07.141Z,21.90
2018-11-06T09:18:35.092Z,20.93
2018-11-06T09:21:03.268Z,18.40
2018-11-06T09:23:31.102Z,19.50
2018-11-06T09:25:58.953Z,21.30
2018-11-06T09:28:29.403Z,18.50
2018-11-06T09:30:57.296Z,17.80
2018-11-06T09:33:24.996Z,19.03
2018-11-06T09:35:52.674Z,17.83
2018-11-06T09:38:20.475Z,18.20
2018-11-06T09:40:48.154Z,19.70
2018-11-06T09:43:20.187Z,19.33
2018-11-06T09:45:53.070Z,19.20
2018-11-06T09:48:21.455Z,21.90
2018-11-06T09:50:57.042Z,17.10
2018-11-06T09:53:27.029Z,20.00
2018-11-06T09:56:07.715Z,19.53
2018-11-06T09:58:40.411Z,19.00
2018-11-06T10:01:09.919Z,20.53
2018-11-06T10:03:46.060Z,21.50
2018-11-06T10:06:14.999Z,21.50
2018-11-06T10:08:42.836Z,21.53
2018-11-06T10:11:11.506Z,20.43
2018-11-06T10:13:39.367Z,20.60
2018-11-06T10:16:07.601Z,21.87
2018-11-06T10:18:35.712Z,21.17
2018-11-06T10:21:03.894Z,22.60
2018-11-06T10:23:31.524Z,21.27
2018-11-06T10:28:42.695Z,23.20
2018-11-06T10:31:10.405Z,21.67
2018-11-06T10:33:39.367Z,23.10
2018-11-06T10:36:07.444Z,23.03
2018-11-06T10:38:35.193Z,23.30
2018-11-06T10:41:03.785Z,25.40
2018-11-06T10:43:31.503Z,23.73
2018-11-06T10:45:59.241Z,21.87
2018-11-06T10:48:27.357Z,22.70
2018-11-06T10:50:56.241Z,23.70
2018-11-06T10:53:24.014Z,18.97
2018-11-06T10:55:51.676Z,21.13
2018-11-06T10:58:19.851Z,21.73
2018-11-06T11:00:54.497Z,21.77
2018-11-06T11:03:28.469Z,20.70
2018-11-06T11:05:58.501Z,21.27
2018-11-06T11:08:26.157Z,23.77
2018-11-06T11:10:53.819Z,24.37
2018-11-06T11:13:22.012Z,23.17
2018-11-06T11:15:50.480Z,23.20
2018-11-06T11:18:18.172Z,23.50
2018-11-06T11:20:45.906Z,22.07
2018-11-06T11:23:13.871Z,22.70
2018-11-06T11:25:41.907Z,22.13
2018-11-06T11:28:10.453Z,25.43
2018-11-06T11:30:39.415Z,24.77
2018-11-06T11:33:07.180Z,27.97
2018-11-06T11:35:34.836Z,24.10
2018-11-06T11:38:03.530Z,23.30
2018-11-06T11:40:32.842Z,25.40
2018-11-06T11:43:00.948Z,23.77
2018-11-06T11:45:28.595Z,22.80
2018-11-06T11:47:56.287Z,23.47
2018-11-06T11:50:23.890Z,24.17
2018-11-06T11:52:51.633Z,25.03
2018-11-06T11:55:19.249Z,24.87
2018-11-06T11:57:46.952Z,27.47
2018-11-06T12:00:18.249Z,24.37
2018-11-06T12:02:54.506Z,23.30
2018-11-06T12:05:36.680Z,21.17
2018-11-06T12:08:04.801Z,21.70
2018-11-06T12:10:32.529Z,22.50
2018-11-06T12:13:09.874Z,23.03
2018-11-06T12:15:37.887Z,21.40
2018-11-06T12:18:06.370Z,25.23
2018-11-06T12:20:34.226Z,22.10
2018-11-06T12:23:01.936Z,23.37
2018-11-06T12:25:29.965Z,22.77
2018-11-06T12:27:57.704Z,24.07
2018-11-06T12:30:25.357Z,25.03
2018-11-06T12:32:53.985Z,24.57
2018-11-06T12:35:22.268Z,22.90
2018-11-06T12:37:54.873Z,26.10
2018-11-06T12:40:28.722Z,28.73
2018-11-06T12:42:58.389Z,26.80
2018-11-06T12:45:34.844Z,25.43
2018-11-06T12:48:06.810Z,25.97
2018-11-06T12:50:35.094Z,25.57
2018-11-06T12:53:02.908Z,27.63
2018-11-06T12:58:31.123Z,28.13
2018-11-06T13:01:05.693Z,28.93
2018-11-06T13:03:34.656Z,25.77
2018-11-06T13:06:02.477Z,28.33
2018-11-06T13:08:30.720Z,29.07
2018-11-06T13:11:04.079Z,27.07
2018-11-06T13:13:40.788Z,28.90
2018-11-06T13:16:15.440Z,29.37
2018-11-06T13:18:45.981Z,31.40
2018-11-06T13:21:13.763Z,29.03
2018-11-06T13:23:48.305Z,28.37
2018-11-06T13:26:25.829Z,29.73
2018-11-06T13:28:58.166Z,30.90
2018-11-06T13:31:30.350Z,29.57
2018-11-06T13:33:58.076Z,26.07
2018-11-06T13:36:35.936Z,27.80
2018-11-06T13:39:10.780Z,29.37
2018-11-06T13:41:55.167Z,28.37
2018-11-06T13:47:11.709Z,26.93
2018-11-06T13:52:44.816Z,29.17
2018-11-06T13:55:30.582Z,28.60
2018-11-06T13:57:58.510Z,29.17
2018-11-06T14:00:35.311Z,28.70
2018-11-06T14:05:46.942Z,25.40
2018-11-06T14:08:28.861Z,28.67
2018-11-06T14:10:56.776Z,25.93
2018-11-06T14:13:25.184Z,29.70
2018-11-06T14:15:53.537Z,29.93
2018-11-06T14:18:21.233Z,30.60
2018-11-06T14:20:48.895Z,29.43
2018-11-06T14:23:19.145Z,30.03
2018-11-06T14:25:56.686Z,27.00
2018-11-06T14:28:33.119Z,27.87
2018-11-06T14:31:01.774Z,28.57
2018-11-06T14:33:30.049Z,27.53
2018-11-06T14:35:58.747Z,31.03
2018-11-06T14:38:27.075Z,29.37
2018-11-06T14:40:55.154Z,31.70
2018-11-06T14:43:23.172Z,31.07
2018-11-06T14:45:51.322Z,35.10
2018-11-06T14:48:19.435Z,30.77
2018-11-06T14:50:47.046Z,31.17
2018-11-06T14:53:15.755Z,28.97
2018-11-06T14:55:43.438Z,29.23
2018-11-06T14:58:11.239Z,29.60
2018-11-06T15:00:51.493Z,31.57
2018-11-06T15:03:19.161Z,31.57
2018-11-06T15:11:11.369Z,31.80
2018-11-06T15:13:47.508Z,32.10
2018-11-06T15:16:15.171Z,30.77
2018-11-06T15:18:43.757Z,31.17
2018-11-06T15:21:12.144Z,32.83
2018-11-06T15:23:41.022Z,30.83
2018-11-06T15:26:08.892Z,33.30
2018-11-06T15:28:37.691Z,32.50
2018-11-06T15:31:07.991Z,31.57
2018-11-06T15:33:36.796Z,33.47
2018-11-06T15:36:10.867Z,31.87
2018-11-06T15:38:38.538Z,32.43
2018-11-06T15:41:06.325Z,36.23
2018-11-06T15:43:38.031Z,32.13
2018-11-06T15:46:06.030Z,32.27
2018-11-06T15:48:34.131Z,32.70
2018-11-06T15:51:01.730Z,30.57
2018-11-06T15:53:29.421Z,31.23
2018-11-06T15:55:57.451Z,33.40
2018-11-06T15:58:25.074Z,30.83
2018-11-06T16:00:52.854Z,35.13
2018-11-06T16:03:20.609Z,34.40
2018-11-06T16:05:48.328Z,31.90
2018-11-06T16:08:16.097Z,31.77
2018-11-06T16:10:43.823Z,27.37
2018-11-06T16:13:11.599Z,29.83
2018-11-06T16:15:39.354Z,29.23
2018-11-06T16:18:07.088Z,29.90
2018-11-06T16:20:34.774Z,29.70
2018-11-06T16:23:02.466Z,27.27
2018-11-06T16:25:30.197Z,28.40
2018-11-06T16:27:57.998Z,31.03
2018-11-06T16:30:25.819Z,28.30
2018-11-06T16:32:53.535Z,30.33
2018-11-06T16:35:22.660Z,29.07
2018-11-06T16:37:50.504Z,28.13
2018-11-06T16:40:18.513Z,29.90
2018-11-06T16:42:46.748Z,28.00
2018-11-06T16:45:15.909Z,27.40
2018-11-06T16:47:44.672Z,29.50
2018-11-06T16:50:13.743Z,29.97
2018-11-06T16:52:41.573Z,29.93
2018-11-06T16:55:09.847Z,28.87
2018-11-06T16:57:37.956Z,29.20
2018-11-06T17:00:06.501Z,31.93
2018-11-06T17:02:34.134Z,33.13
2018-11-06T17:05:01.902Z,29.77
2018-11-06T17:07:29.555Z,29.87
2018-11-06T17:09:57.224Z,29.07
2018-11-06T17:12:24.885Z,29.67
2018-11-06T17:14:52.571Z,30.27
2018-11-06T17:17:20.309Z,30.87
2018-11-06T17:19:47.977Z,30.60
2018-11-06T17:22:15.571Z,31.13
2018-11-06T17:24:44.550Z,30.83
2018-11-06T17:27:12.410Z,33.60
2018-11-06T17:29:40.155Z,34.17
2018-11-06T17:32:07.815Z,28.50
2018-11-06T17:34:35.436Z,31.67
2018-11-06T17:37:03.099Z,30.37
2018-11-06T17:39:30.741Z,27.77
2018-11-06T17:41:58.418Z,30.33
2018-11-06T17:44:26.022Z,28.60
2018-11-06T17:46:53.727Z,31.13
2018-11-06T17:49:21.386Z,30.23
2018-11-06T17:51:49.072Z,30.13
2018-11-06T17:54:16.698Z,31.30
2018-11-06T17:56:44.388Z,26.10
2018-11-06T17:59:12.035Z,29.60
2018-11-06T18:01:39.761Z,29.10
2018-11-06T18:04:07.514Z,29.03
2018-11-06T18:06:35.138Z,30.67
2018-11-06T18:09:04.872Z,30.80
2018-11-06T18:11:32.591Z,31.10
2018-11-06T18:14:00.324Z,33.90
2018-11-06T18:16:28.244Z,34.20
2018-11-06T18:18:56.111Z,28.77
2018-11-06T18:21:38.192Z,30.77
2018-11-06T18:24:19.136Z,32.33
2018-11-06T18:26:46.851Z,31.07
2018-11-06T18:29:32.385Z,32.60
2018-11-06T18:34:50.256Z,33.23
2018-11-06T18:37:29.011Z,29.33
2018-11-06T18:40:12.663Z,31.60
2018-11-06T18:45:35.198Z,31.77
2018-11-06T18:48:04.505Z,31.40
2018-11-06T18:50:34.114Z,34.30
2018-11-06T18:53:08.468Z,32.47
2018-11-06T18:55:40.337Z,29.47
2018-11-06T18:58:10.410Z,31.17
2018-11-06T19:00:39.512Z,32.63
2018-11-06T19:03:10.788Z,32.00
2018-11-06T19:05:44.125Z,31.70
2018-11-06T19:08:17.351Z,31.17
2018-11-06T19:10:55.967Z,30.97
2018-11-06T19:13:23.770Z,32.63
2018-11-06T19:16:01.493Z,32.33
2018-11-06T19:18:33.980Z,33.50
2018-11-06T19:21:03.018Z,31.37
2018-11-06T19:26:09.250Z,30.87
2018-11-06T19:28:41.845Z,28.87
2018-11-06T19:31:14.679Z,28.70
2018-11-06T19:33:43.334Z,27.30
2018-11-06T19:36:13.318Z,26.77
2018-11-06T19:38:47.487Z,27.87
2018-11-06T19:41:19.610Z,27.90
2018-11-06T19:43:56.862Z,28.60
2018-11-06T19:46:26.242Z,30.43
2018-11-06T19:49:07.062Z,29.07
2018-11-06T19:51:37.579Z,31.73
2018-11-06T19:54:05.309Z,32.40
2018-11-06T19:56:35.554Z,28.60
2018-11-06T19:59:04.874Z,26.70
2018-11-06T20:01:38.013Z,31.00
2018-11-06T20:04:06.347Z,30.50
2018-11-06T20:06:34.280Z,31.23
2018-11-06T20:09:02.492Z,27.37
2018-11-06T20:11:34.218Z,30.83
2018-11-06T20:14:06.830Z,38.90
2018-11-06T20:16:35.903Z,33.97
2018-11-06T20:19:08.799Z,33.30
2018-11-06T20:21:37.738Z,33.80
2018-11-06T20:24:05.796Z,34.97
2018-11-06T20:26:34.156Z,32.73
2018-11-06T20:29:02.925Z,32.70
2018-11-06T20:31:38.892Z,33.03
2018-11-06T20:34:07.081Z,34.70
2018-11-06T20:36:35.114Z,34.20
2018-11-06T20:39:02.928Z,37.83
2018-11-06T20:41:30.897Z,34.23
2018-11-06T20:43:58.817Z,31.10
2018-11-06T20:46:26.971Z,32.20
2018-11-06T20:48:54.766Z,30.83
2018-11-06T20:51:24.721Z,31.80
2018-11-06T20:53:52.858Z,35.00
2018-11-06T20:56:20.816Z,32.83
2018-11-06T20:58:48.622Z,35.33
2018-11-06T21:01:16.504Z,33.73
2018-11-06T21:03:44.812Z,32.43
2018-11-06T21:06:13.637Z,35.57
2018-11-06T21:08:41.581Z,32.97
2018-11-06T21:11:09.695Z,32.57
2018-11-06T21:13:37.854Z,32.63
2018-11-06T21:16:08.814Z,33.30
2018-11-06T21:18:42.287Z,32.00
2018-11-06T21:21:12.711Z,32.10
2018-11-06T21:23:41.702Z,31.57
2018-11-06T21:26:13.587Z,36.80
2018-11-06T21:28:42.837Z,36.23
2018-11-06T21:31:13.761Z,38.97
2018-11-06T21:33:45.484Z,38.97
2018-11-06T21:36:16.394Z,33.40
2018-11-06T21:38:45.262Z,34.17
2018-11-06T21:41:13.255Z,36.70
2018-11-06T21:43:41.023Z,37.97
2018-11-06T21:46:09.365Z,40.40
2018-11-06T21:48:37.432Z,37.77
2018-11-06T21:51:06.002Z,36.27
2018-11-06T21:53:33.856Z,36.30
2018-11-06T21:56:01.720Z,39.90
2018-11-06T21:58:29.471Z,36.90
2018-11-06T22:00:57.396Z,37.37
2018-11-06T22:03:25.511Z,39.13
2018-11-06T22:05:54.328Z,36.23
2018-11-06T22:08:23.130Z,38.50
2018-11-06T22:10:51.423Z,39.77
2018-11-06T22:13:19.965Z,41.53
2018-11-06T22:15:47.763Z,41.07
2018-11-06T22:18:15.658Z,44.60
2018-11-06T22:20:43.481Z,42.37
2018-11-06T22:23:11.346Z,44.57
2018-11-06T22:25:39.114Z,40.70
2018-11-06T22:30:47.660Z,40.30
2018-11-06T22:33:15.612Z,41.17
2018-11-06T22:35:43.520Z,43.37
2018-11-06T22:38:11.644Z,45.20
2018-11-06T22:40:39.443Z,47.03
2018-11-06T22:43:07.561Z,45.90
2018-11-06T22:45:36.091Z,44.33
2018-11-06T22:48:04.020Z,44.30
2018-11-06T22:50:32.024Z,43.87
2018-11-06T22:52:59.880Z,45.83
2018-11-06T22:55:27.591Z,44.80
2018-11-06T22:57:55.516Z,46.57
2018-11-06T23:00:28.428Z,44.53
2018-11-06T23:02:56.176Z,46.97
2018-11-06T23:05:23.990Z,48.17
2018-11-06T23:08:55.214Z,47.17
2018-11-06T23:11:23.022Z,45.27
2018-11-06T23:13:50.730Z,44.30
2018-11-06T23:16:18.609Z,46.23
2018-11-06T23:18:46.346Z,44.83
2018-11-06T23:21:14.008Z,46.50
2018-11-06T23:23:41.674Z,44.60
2018-11-06T23:26:09.451Z,44.77
2018-11-06T23:28:37.158Z,46.63
2018-11-06T23:31:04.979Z,46.43
2018-11-06T23:33:32.739Z,44.63
2018-11-06T23:36:00.410Z,46.43
2018-11-06T23:38:28.212Z,51.57
2018-11-06T23:40:55.926Z,49.83
2018-11-06T23:43:23.582Z,49.50
2018-11-06T23:45:51.249Z,51.13
2018-11-06T23:48:19.178Z,50.00
2018-11-06T23:50:46.768Z,50.97
2018-11-06T23:53:14.385Z,53.87
2018-11-06T23:55:42.109Z,52.97
2018-11-06T23:58:09.772Z,56.90
